sensor_id;sensor_type;location;lat;lon;timestamp;pressure;altitude;pressure_sealevel;temperature;humidity
71805;BME280;59654;52.216;5.616;2022-07-29T00:00:02;101647.91;;;15.27;64.87
71805;BME280;59654;52.216;5.616;2022-07-29T00:00:35;101650.69;;;15.25;64.62
71805;BME280;59654;52.216;5.616;2022-07-29T00:01:06;101649.88;;;15.23;65.41
71805;BME280;59654;52.216;5.616;2022-07-29T00:01:37;101649.94;;;15.22;65.29
71805;BME280;59654;52.216;5.616;2022-07-29T00:02:07;101646.31;;;15.23;65.93
71805;BME280;59654;52.216;5.616;2022-07-29T00:02:38;101649.94;;;15.22;65.74
71805;BME280;59654;52.216;5.616;2022-07-29T00:03:09;101645.56;;;15.19;65.62
71805;BME280;59654;52.216;5.616;2022-07-29T00:03:40;101642.09;;;15.17;65.70
71805;BME280;59654;52.216;5.616;2022-07-29T00:04:12;101645.56;;;15.19;65.13
71805;BME280;59654;52.216;5.616;2022-07-29T00:04:42;101641.94;;;15.20;65.19
71805;BME280;59654;52.216;5.616;2022-07-29T00:05:13;101645.44;;;15.22;64.77
71805;BME280;59654;52.216;5.616;2022-07-29T00:05:44;101645.31;;;15.25;65.82
71805;BME280;59654;52.216;5.616;2022-07-29T00:06:15;101646.13;;;15.27;64.78
71805;BME280;59654;52.216;5.616;2022-07-29T00:06:46;101638.13;;;15.26;65.41
71805;BME280;59654;52.216;5.616;2022-07-29T00:07:17;101639.94;;;15.25;65.77
71805;BME280;59654;52.216;5.616;2022-07-29T00:07:48;101639.06;;;15.25;65.44
71805;BME280;59654;52.216;5.616;2022-07-29T00:08:18;101642.69;;;15.24;65.68
71805;BME280;59654;52.216;5.616;2022-07-29T00:08:49;101636.44;;;15.23;65.38
71805;BME280;59654;52.216;5.616;2022-07-29T00:09:20;101633.81;;;15.22;65.71
71805;BME280;59654;52.216;5.616;2022-07-29T00:09:51;101639.19;;;15.22;65.75
71805;BME280;59654;52.216;5.616;2022-07-29T00:10:22;101637.38;;;15.22;65.59
71805;BME280;59654;52.216;5.616;2022-07-29T00:10:53;101638.31;;;15.21;65.50
71805;BME280;59654;52.216;5.616;2022-07-29T00:11:24;101633.69;;;15.25;66.04
71805;BME280;59654;52.216;5.616;2022-07-29T00:11:59;101635.44;;;15.26;64.95
71805;BME280;59654;52.216;5.616;2022-07-29T00:12:31;101632.75;;;15.26;64.64
71805;BME280;59654;52.216;5.616;2022-07-29T00:13:02;101628.31;;;15.25;65.30
71805;BME280;59654;52.216;5.616;2022-07-29T00:13:32;101631.25;;;15.18;65.27
71805;BME280;59654;52.216;5.616;2022-07-29T00:14:03;101627.88;;;15.15;65.13
71805;BME280;59654;52.216;5.616;2022-07-29T00:14:34;101628.06;;;15.10;66.53
71805;BME280;59654;52.216;5.616;2022-07-29T00:15:05;101628.06;;;15.10;65.06
71805;BME280;59654;52.216;5.616;2022-07-29T00:15:37;101627.25;;;15.08;65.03
71805;BME280;59654;52.216;5.616;2022-07-29T00:16:08;101630.06;;;15.05;65.86
71805;BME280;59654;52.216;5.616;2022-07-29T00:16:38;101632.75;;;15.05;66.20
71805;BME280;59654;52.216;5.616;2022-07-29T00:17:09;101622.25;;;15.01;66.40
71805;BME280;59654;52.216;5.616;2022-07-29T00:17:40;101619.44;;;15.02;66.94
71805;BME280;59654;52.216;5.616;2022-07-29T00:18:11;101623.13;;;15.01;66.27
71805;BME280;59654;52.216;5.616;2022-07-29T00:18:41;101624.81;;;15.02;66.77
71805;BME280;59654;52.216;5.616;2022-07-29T00:19:12;101627.44;;;15.04;65.65
71805;BME280;59654;52.216;5.616;2022-07-29T00:19:43;101616.63;;;15.05;65.72
71805;BME280;59654;52.216;5.616;2022-07-29T00:20:14;101617.38;;;15.09;65.60
71805;BME280;59654;52.216;5.616;2022-07-29T00:20:44;101620.81;;;15.12;65.64
71805;BME280;59654;52.216;5.616;2022-07-29T00:21:15;101617.25;;;15.12;65.85
71805;BME280;59654;52.216;5.616;2022-07-29T00:21:46;101620.00;;;15.10;66.37
71805;BME280;59654;52.216;5.616;2022-07-29T00:22:17;101621.88;;;15.08;66.19
71805;BME280;59654;52.216;5.616;2022-07-29T00:22:48;101619.25;;;15.07;66.36
71805;BME280;59654;52.216;5.616;2022-07-29T00:23:19;101616.69;;;15.04;66.34
71805;BME280;59654;52.216;5.616;2022-07-29T00:23:49;101615.81;;;15.03;65.87
71805;BME280;59654;52.216;5.616;2022-07-29T00:24:20;101619.56;;;15.01;66.58
71805;BME280;59654;52.216;5.616;2022-07-29T00:24:51;101620.56;;;14.98;67.07
71805;BME280;59654;52.216;5.616;2022-07-29T00:25:22;101620.41;;;15.01;66.02
71805;BME280;59654;52.216;5.616;2022-07-29T00:25:52;101613.38;;;14.99;66.15
71805;BME280;59654;52.216;5.616;2022-07-29T00:26:23;101620.63;;;14.97;66.61
71805;BME280;59654;52.216;5.616;2022-07-29T00:26:54;101622.38;;;14.98;66.61
71805;BME280;59654;52.216;5.616;2022-07-29T00:27:25;101615.19;;;14.98;66.97
71805;BME280;59654;52.216;5.616;2022-07-29T00:27:56;101620.56;;;14.98;66.75
71805;BME280;59654;52.216;5.616;2022-07-29T00:28:26;101614.19;;;15.01;66.05
71805;BME280;59654;52.216;5.616;2022-07-29T00:29:02;101618.69;;;15.00;66.30
71805;BME280;59654;52.216;5.616;2022-07-29T00:29:34;101615.13;;;15.00;66.41
71805;BME280;59654;52.216;5.616;2022-07-29T00:30:06;101617.00;;;14.98;66.73
71805;BME280;59654;52.216;5.616;2022-07-29T00:30:37;101616.94;;;14.99;66.68
71805;BME280;59654;52.216;5.616;2022-07-29T00:31:08;101613.44;;;14.97;66.76
71805;BME280;59654;52.216;5.616;2022-07-29T00:31:39;101613.56;;;14.94;66.71
71805;BME280;59654;52.216;5.616;2022-07-29T00:32:10;101614.50;;;14.93;66.86
71805;BME280;59654;52.216;5.616;2022-07-29T00:32:40;101614.44;;;14.95;66.81
71805;BME280;59654;52.216;5.616;2022-07-29T00:33:11;101611.81;;;14.93;66.16
71805;BME280;59654;52.216;5.616;2022-07-29T00:33:42;101610.06;;;14.92;66.60
71805;BME280;59654;52.216;5.616;2022-07-29T00:34:13;101610.88;;;14.94;67.20
71805;BME280;59654;52.216;5.616;2022-07-29T00:35:02;101612.69;;;14.94;67.18
71805;BME280;59654;52.216;5.616;2022-07-29T00:35:52;101606.44;;;14.93;66.75
71805;BME280;59654;52.216;5.616;2022-07-29T00:36:23;101610.19;;;14.89;67.18
71805;BME280;59654;52.216;5.616;2022-07-29T00:36:54;101609.38;;;14.87;67.60
71805;BME280;59654;52.216;5.616;2022-07-29T00:37:25;101613.00;;;14.86;67.66
71805;BME280;59654;52.216;5.616;2022-07-29T00:37:56;101608.88;;;14.79;66.93
71805;BME280;59654;52.216;5.616;2022-07-29T00:38:26;101606.25;;;14.77;67.37
71805;BME280;59654;52.216;5.616;2022-07-29T00:38:57;101614.25;;;14.79;66.95
71805;BME280;59654;52.216;5.616;2022-07-29T00:39:28;101604.31;;;14.81;67.33
71805;BME280;59654;52.216;5.616;2022-07-29T00:39:59;101604.31;;;14.81;67.44
71805;BME280;59654;52.216;5.616;2022-07-29T00:40:30;101603.44;;;14.80;66.56
71805;BME280;59654;52.216;5.616;2022-07-29T00:41:01;101605.94;;;14.85;66.77
71805;BME280;59654;52.216;5.616;2022-07-29T00:41:32;101609.47;;;14.86;66.97
71805;BME280;59654;52.216;5.616;2022-07-29T00:42:04;101602.38;;;14.85;66.89
71805;BME280;59654;52.216;5.616;2022-07-29T00:42:48;101608.69;;;14.83;67.19
71805;BME280;59654;52.216;5.616;2022-07-29T00:43:19;101603.44;;;14.80;67.08
71805;BME280;59654;52.216;5.616;2022-07-29T00:43:50;101610.50;;;14.83;67.64
71805;BME280;59654;52.216;5.616;2022-07-29T00:44:21;101606.00;;;14.83;66.77
71805;BME280;59654;52.216;5.616;2022-07-29T00:44:51;101601.56;;;14.82;66.79
71805;BME280;59654;52.216;5.616;2022-07-29T00:45:22;101619.41;;;14.83;66.72
71805;BME280;59654;52.216;5.616;2022-07-29T00:45:53;101603.38;;;14.82;66.57
71805;BME280;59654;52.216;5.616;2022-07-29T00:46:24;101604.91;;;14.88;66.88
71805;BME280;59654;52.216;5.616;2022-07-29T00:46:54;101609.25;;;14.90;66.92
71805;BME280;59654;52.216;5.616;2022-07-29T00:47:25;101596.72;;;14.91;66.70
71805;BME280;59654;52.216;5.616;2022-07-29T00:47:56;101604.69;;;14.92;66.96
71805;BME280;59654;52.216;5.616;2022-07-29T00:48:27;101598.53;;;14.90;66.16
71805;BME280;59654;52.216;5.616;2022-07-29T00:48:57;101603.81;;;14.92;66.37
71805;BME280;59654;52.216;5.616;2022-07-29T00:49:28;101594.84;;;14.93;65.56
71805;BME280;59654;52.216;5.616;2022-07-29T00:49:59;101603.69;;;14.95;66.67
71805;BME280;59654;52.216;5.616;2022-07-29T00:50:32;101599.19;;;14.95;66.02
71805;BME280;59654;52.216;5.616;2022-07-29T00:51:04;101601.88;;;14.95;66.39
71805;BME280;59654;52.216;5.616;2022-07-29T00:51:37;101596.44;;;14.97;66.74
71805;BME280;59654;52.216;5.616;2022-07-29T00:52:09;101594.84;;;14.93;66.91
71805;BME280;59654;52.216;5.616;2022-07-29T00:52:42;101601.22;;;14.90;66.80
71805;BME280;59654;52.216;5.616;2022-07-29T00:53:13;101590.47;;;14.90;66.68
71805;BME280;59654;52.216;5.616;2022-07-29T00:53:44;101594.31;;;14.85;67.05
71805;BME280;59654;52.216;5.616;2022-07-29T00:54:17;101588.94;;;14.85;66.08
71805;BME280;59654;52.216;5.616;2022-07-29T00:54:47;101584.34;;;14.87;66.70
71805;BME280;59654;52.216;5.616;2022-07-29T00:55:18;101591.47;;;14.88;66.83
71805;BME280;59654;52.216;5.616;2022-07-29T00:55:50;101596.84;;;14.88;66.25
71805;BME280;59654;52.216;5.616;2022-07-29T00:56:21;101588.84;;;14.86;66.50
71805;BME280;59654;52.216;5.616;2022-07-29T00:56:53;101590.47;;;14.90;66.82
71805;BME280;59654;52.216;5.616;2022-07-29T00:57:24;101590.47;;;14.90;66.74
71805;BME280;59654;52.216;5.616;2022-07-29T00:57:56;101588.66;;;14.91;66.89
71805;BME280;59654;52.216;5.616;2022-07-29T00:58:28;101587.72;;;14.92;66.57
71805;BME280;59654;52.216;5.616;2022-07-29T00:58:59;101587.84;;;14.89;67.09
71805;BME280;59654;52.216;5.616;2022-07-29T00:59:31;101592.34;;;14.88;66.26
71805;BME280;59654;52.216;5.616;2022-07-29T01:00:07;101587.91;;;14.87;66.52
71805;BME280;59654;52.216;5.616;2022-07-29T01:00:40;101585.22;;;14.87;65.94
71805;BME280;59654;52.216;5.616;2022-07-29T01:01:11;101588.78;;;14.88;66.54
71805;BME280;59654;52.216;5.616;2022-07-29T01:01:42;101584.34;;;14.87;66.67
71805;BME280;59654;52.216;5.616;2022-07-29T01:02:12;101590.59;;;14.87;65.92
71805;BME280;59654;52.216;5.616;2022-07-29T01:02:44;101586.31;;;14.83;67.00
71805;BME280;59654;52.216;5.616;2022-07-29T01:03:18;101588.06;;;14.84;66.05
71805;BME280;59654;52.216;5.616;2022-07-29T01:03:49;101583.69;;;14.81;65.91
71805;BME280;59654;52.216;5.616;2022-07-29T01:04:21;101581.75;;;14.85;66.32
71805;BME280;59654;52.216;5.616;2022-07-29T01:04:53;101581.81;;;14.83;66.51
71805;BME280;59654;52.216;5.616;2022-07-29T01:05:27;101583.78;;;14.80;66.91
71805;BME280;59654;52.216;5.616;2022-07-29T01:06:00;101583.69;;;14.81;66.70
71805;BME280;59654;52.216;5.616;2022-07-29T01:06:31;101581.88;;;14.82;66.27
71805;BME280;59654;52.216;5.616;2022-07-29T01:07:02;101580.09;;;14.82;66.36
71805;BME280;59654;52.216;5.616;2022-07-29T01:07:36;101576.59;;;14.80;66.42
71805;BME280;59654;52.216;5.616;2022-07-29T01:08:08;101574.78;;;14.81;66.69
71805;BME280;59654;52.216;5.616;2022-07-29T01:08:39;101584.63;;;14.80;66.21
71805;BME280;59654;52.216;5.616;2022-07-29T01:09:12;101573.03;;;14.80;67.07
71805;BME280;59654;52.216;5.616;2022-07-29T01:09:45;101579.41;;;14.77;67.35
71805;BME280;59654;52.216;5.616;2022-07-29T01:10:19;101579.34;;;14.79;66.48
71805;BME280;59654;52.216;5.616;2022-07-29T01:10:52;101576.72;;;14.77;67.17
71805;BME280;59654;52.216;5.616;2022-07-29T01:11:25;101573.28;;;14.74;66.93
71805;BME280;59654;52.216;5.616;2022-07-29T01:11:57;101576.84;;;14.74;66.73
71805;BME280;59654;52.216;5.616;2022-07-29T01:12:30;101580.41;;;14.75;66.82
71805;BME280;59654;52.216;5.616;2022-07-29T01:13:04;101573.22;;;14.75;66.93
71805;BME280;59654;52.216;5.616;2022-07-29T01:13:36;101579.47;;;14.76;66.43
71805;BME280;59654;52.216;5.616;2022-07-29T01:14:09;101579.47;;;14.76;67.69
71805;BME280;59654;52.216;5.616;2022-07-29T01:14:40;101577.66;;;14.76;66.51
71805;BME280;59654;52.216;5.616;2022-07-29T01:15:12;101575.84;;;14.77;65.77
71805;BME280;59654;52.216;5.616;2022-07-29T01:17:06;101578.53;;;14.77;66.60
71805;BME280;59654;52.216;5.616;2022-07-29T01:18:46;101577.66;;;14.76;66.63
71805;BME280;59654;52.216;5.616;2022-07-29T01:21:27;101578.78;;;14.71;67.15
71805;BME280;59654;52.216;5.616;2022-07-29T01:22:19;101567.09;;;14.72;66.97
71805;BME280;59654;52.216;5.616;2022-07-29T01:24:03;101569.78;;;14.72;67.29
71805;BME280;59654;52.216;5.616;2022-07-29T01:25:57;101566.47;;;14.67;67.34
71805;BME280;59654;52.216;5.616;2022-07-29T01:28:38;101571.31;;;14.57;67.42
71805;BME280;59654;52.216;5.616;2022-07-29T01:29:26;101573.94;;;14.59;67.28
71805;BME280;59654;52.216;5.616;2022-07-29T01:30:02;101575.72;;;14.58;67.42
71805;BME280;59654;52.216;5.616;2022-07-29T01:30:38;101577.41;;;14.61;66.28
71805;BME280;59654;52.216;5.616;2022-07-29T01:31:10;101579.09;;;14.63;66.23
71805;BME280;59654;52.216;5.616;2022-07-29T01:32:01;101571.97;;;14.62;66.47
71805;BME280;59654;52.216;5.616;2022-07-29T01:32:37;101572.13;;;14.59;66.52
71805;BME280;59654;52.216;5.616;2022-07-29T01:33:13;101570.72;;;14.51;66.75
71805;BME280;59654;52.216;5.616;2022-07-29T01:34:11;101570.56;;;14.54;67.23
71805;BME280;59654;52.216;5.616;2022-07-29T01:35:07;101567.81;;;14.55;67.08
71805;BME280;59654;52.216;5.616;2022-07-29T01:35:45;101574.84;;;14.58;67.59
71805;BME280;59654;52.216;5.616;2022-07-29T01:36:40;101572.06;;;14.61;66.85
71805;BME280;59654;52.216;5.616;2022-07-29T01:38:31;101572.19;;;14.58;67.82
71805;BME280;59654;52.216;5.616;2022-07-29T01:39:07;101573.06;;;14.58;67.13
71805;BME280;59654;52.216;5.616;2022-07-29T01:40:19;101567.47;;;14.64;66.83
71805;BME280;59654;52.216;5.616;2022-07-29T01:41:05;101564.81;;;14.63;67.03
71805;BME280;59654;52.216;5.616;2022-07-29T01:41:49;101558.53;;;14.64;66.58
71805;BME280;59654;52.216;5.616;2022-07-29T01:42:36;101568.34;;;14.65;66.86
71805;BME280;59654;52.216;5.616;2022-07-29T01:43:15;101564.78;;;14.64;67.18
71805;BME280;59654;52.216;5.616;2022-07-29T01:44:09;101567.47;;;14.64;67.56
71805;BME280;59654;52.216;5.616;2022-07-29T01:44:59;101554.13;;;14.61;67.12
71805;BME280;59654;52.216;5.616;2022-07-29T01:46:19;101557.81;;;14.59;67.38
71805;BME280;59654;52.216;5.616;2022-07-29T01:46:34;101557.00;;;14.57;67.34
71805;BME280;59654;52.216;5.616;2022-07-29T01:47:15;101557.06;;;14.55;67.68
71805;BME280;59654;52.216;5.616;2022-07-29T01:48:00;101558.97;;;14.53;67.12
71805;BME280;59654;52.216;5.616;2022-07-29T01:49:22;101555.53;;;14.49;67.70
71805;BME280;59654;52.216;5.616;2022-07-29T01:49:58;101563.38;;;14.54;67.41
71805;BME280;59654;52.216;5.616;2022-07-29T01:50:37;101560.69;;;14.54;66.86
71805;BME280;59654;52.216;5.616;2022-07-29T01:51:19;101559.81;;;14.54;67.84
71805;BME280;59654;52.216;5.616;2022-07-29T01:51:59;101558.81;;;14.56;67.15
71805;BME280;59654;52.216;5.616;2022-07-29T01:52:39;101561.44;;;14.58;66.36
71805;BME280;59654;52.216;5.616;2022-07-29T01:53:21;101560.38;;;14.62;66.16
71805;BME280;59654;52.216;5.616;2022-07-29T01:54:08;101563.94;;;14.62;67.45
71805;BME280;59654;52.216;5.616;2022-07-29T01:54:50;101558.56;;;14.62;67.32
71805;BME280;59654;52.216;5.616;2022-07-29T01:55:29;101565.75;;;14.62;66.58
71805;BME280;59654;52.216;5.616;2022-07-29T01:56:04;101559.44;;;14.63;67.41
71805;BME280;59654;52.216;5.616;2022-07-29T01:56:39;101567.47;;;14.64;66.81
71805;BME280;59654;52.216;5.616;2022-07-29T01:57:14;101565.75;;;14.62;67.08
71805;BME280;59654;52.216;5.616;2022-07-29T01:57:49;101567.50;;;14.63;67.06
71805;BME280;59654;52.216;5.616;2022-07-29T01:58:22;101563.91;;;14.64;66.51
71805;BME280;59654;52.216;5.616;2022-07-29T01:58:55;101563.91;;;14.64;66.90
71805;BME280;59654;52.216;5.616;2022-07-29T01:59:29;101561.22;;;14.64;66.33
71805;BME280;59654;52.216;5.616;2022-07-29T02:00:03;101566.69;;;14.61;67.09
71805;BME280;59654;52.216;5.616;2022-07-29T02:00:45;101557.69;;;14.62;66.59
71805;BME280;59654;52.216;5.616;2022-07-29T02:01:18;101561.31;;;14.61;66.79
71805;BME280;59654;52.216;5.616;2022-07-29T02:01:53;101561.31;;;14.61;66.27
71805;BME280;59654;52.216;5.616;2022-07-29T02:02:27;101561.38;;;14.59;67.56
71805;BME280;59654;52.216;5.616;2022-07-29T02:03:05;101572.47;;;14.52;68.05
71805;BME280;59654;52.216;5.616;2022-07-29T02:03:44;101566.34;;;14.48;67.87
71805;BME280;59654;52.216;5.616;2022-07-29T02:04:18;101561.78;;;14.50;66.40
71805;BME280;59654;52.216;5.616;2022-07-29T02:04:53;101559.22;;;14.47;67.08
71805;BME280;59654;52.216;5.616;2022-07-29T02:05:27;101561.22;;;14.42;67.41
71805;BME280;59654;52.216;5.616;2022-07-29T02:06:02;101568.41;;;14.41;67.68
71805;BME280;59654;52.216;5.616;2022-07-29T02:06:37;101571.09;;;14.41;68.04
71805;BME280;59654;52.216;5.616;2022-07-29T02:07:13;101564.09;;;14.37;68.42
71805;BME280;59654;52.216;5.616;2022-07-29T02:07:49;101567.00;;;14.33;70.04
71805;BME280;59654;52.216;5.616;2022-07-29T02:08:23;101571.63;;;14.29;69.94
71805;BME280;59654;52.216;5.616;2022-07-29T02:08:57;101569.19;;;14.23;69.61
71805;BME280;59654;52.216;5.616;2022-07-29T02:09:32;101567.44;;;14.22;69.95
71805;BME280;59654;52.216;5.616;2022-07-29T02:10:07;101567.66;;;14.18;69.33
71805;BME280;59654;52.216;5.616;2022-07-29T02:10:42;101568.53;;;14.18;69.23
71805;BME280;59654;52.216;5.616;2022-07-29T02:11:13;101566.66;;;14.20;69.79
71805;BME280;59654;52.216;5.616;2022-07-29T02:11:49;101571.91;;;14.22;68.50
71805;BME280;59654;52.216;5.616;2022-07-29T02:12:25;101574.47;;;14.25;68.95
71805;BME280;59654;52.216;5.616;2022-07-29T02:12:57;101578.03;;;14.25;68.67
71805;BME280;59654;52.216;5.616;2022-07-29T02:13:31;101572.69;;;14.25;70.76
71805;BME280;59654;52.216;5.616;2022-07-29T02:14:07;101574.41;;;14.26;70.23
71805;BME280;59654;52.216;5.616;2022-07-29T02:14:52;101574.41;;;14.26;70.55
71805;BME280;59654;52.216;5.616;2022-07-29T02:15:28;101578.91;;;14.26;69.55
71805;BME280;59654;52.216;5.616;2022-07-29T02:16:02;101573.50;;;14.27;69.55
71805;BME280;59654;52.216;5.616;2022-07-29T02:16:39;101579.66;;;14.29;69.40
71805;BME280;59654;52.216;5.616;2022-07-29T02:17:13;101566.13;;;14.32;69.26
71805;BME280;59654;52.216;5.616;2022-07-29T02:17:58;101576.78;;;14.34;69.85
71805;BME280;59654;52.216;5.616;2022-07-29T02:18:33;101575.88;;;14.35;68.77
71805;BME280;59654;52.216;5.616;2022-07-29T02:19:09;101580.34;;;14.34;69.05
71805;BME280;59654;52.216;5.616;2022-07-29T02:19:43;101571.38;;;14.35;68.27
71805;BME280;59654;52.216;5.616;2022-07-29T02:20:16;101582.09;;;14.35;68.59
71805;BME280;59654;52.216;5.616;2022-07-29T02:20:50;101567.81;;;14.35;68.78
71805;BME280;59654;52.216;5.616;2022-07-29T02:21:25;101570.44;;;14.36;68.84
71805;BME280;59654;52.216;5.616;2022-07-29T02:21:59;101578.47;;;14.36;68.42
71805;BME280;59654;52.216;5.616;2022-07-29T02:22:33;101572.16;;;14.37;68.58
71805;BME280;59654;52.216;5.616;2022-07-29T02:23:09;101575.72;;;14.38;69.75
71805;BME280;59654;52.216;5.616;2022-07-29T02:23:44;101575.72;;;14.38;68.32
71805;BME280;59654;52.216;5.616;2022-07-29T02:24:18;101575.66;;;14.39;68.63
71805;BME280;59654;52.216;5.616;2022-07-29T02:24:51;101580.06;;;14.40;68.45
71805;BME280;59654;52.216;5.616;2022-07-29T02:25:24;101579.13;;;14.41;68.24
71805;BME280;59654;52.216;5.616;2022-07-29T02:25:56;101575.53;;;14.42;68.17
71805;BME280;59654;52.216;5.616;2022-07-29T02:26:29;101573.72;;;14.43;68.00
71805;BME280;59654;52.216;5.616;2022-07-29T02:27:03;101572.84;;;14.42;68.37
71805;BME280;59654;52.216;5.616;2022-07-29T02:27:35;101580.88;;;14.42;68.20
71805;BME280;59654;52.216;5.616;2022-07-29T02:28:06;101570.97;;;14.44;67.78
71805;BME280;59654;52.216;5.616;2022-07-29T02:28:40;101573.66;;;14.44;67.51
71805;BME280;59654;52.216;5.616;2022-07-29T02:29:13;101574.53;;;14.45;67.38
71805;BME280;59654;52.216;5.616;2022-07-29T02:29:47;101569.16;;;14.45;68.58
71805;BME280;59654;52.216;5.616;2022-07-29T02:30:22;101575.47;;;14.44;69.50
71805;BME280;59654;52.216;5.616;2022-07-29T02:30:58;101579.81;;;14.46;68.35
71805;BME280;59654;52.216;5.616;2022-07-29T02:31:34;101578.13;;;14.44;68.57
71805;BME280;59654;52.216;5.616;2022-07-29T02:32:09;101573.66;;;14.44;68.76
71805;BME280;59654;52.216;5.616;2022-07-29T02:32:43;101574.47;;;14.46;68.26
71805;BME280;59654;52.216;5.616;2022-07-29T02:33:18;101575.41;;;14.45;68.42
71805;BME280;59654;52.216;5.616;2022-07-29T02:33:51;101570.03;;;14.45;68.35
71805;BME280;59654;52.216;5.616;2022-07-29T02:34:24;101574.47;;;14.46;68.12
71805;BME280;59654;52.216;5.616;2022-07-29T02:34:56;101571.78;;;14.46;68.55
71805;BME280;59654;52.216;5.616;2022-07-29T02:35:29;101572.66;;;14.47;68.23
71805;BME280;59654;52.216;5.616;2022-07-29T02:36:01;101570.03;;;14.45;67.86
71805;BME280;59654;52.216;5.616;2022-07-29T02:36:34;101571.84;;;14.45;67.93
71805;BME280;59654;52.216;5.616;2022-07-29T02:37:05;101571.91;;;14.43;68.98
71805;BME280;59654;52.216;5.616;2022-07-29T02:37:40;101573.72;;;14.43;69.21
71805;BME280;59654;52.216;5.616;2022-07-29T02:38:14;101568.41;;;14.41;69.05
71805;BME280;59654;52.216;5.616;2022-07-29T02:39:07;101576.38;;;14.43;67.77
71805;BME280;59654;52.216;5.616;2022-07-29T02:39:42;101570.09;;;14.44;68.30
71805;BME280;59654;52.216;5.616;2022-07-29T02:40:15;101568.28;;;14.44;68.88
71805;BME280;59654;52.216;5.616;2022-07-29T02:40:46;101572.72;;;14.45;69.43
71805;BME280;59654;52.216;5.616;2022-07-29T02:41:23;101564.72;;;14.44;68.74
71805;BME280;59654;52.216;5.616;2022-07-29T02:42:07;101567.47;;;14.42;68.62
71805;BME280;59654;52.216;5.616;2022-07-29T02:42:43;101563.97;;;14.40;68.28
71805;BME280;59654;52.216;5.616;2022-07-29T02:43:16;101557.78;;;14.38;68.19
71805;BME280;59654;52.216;5.616;2022-07-29T02:43:52;101557.97;;;14.35;68.17
71805;BME280;59654;52.216;5.616;2022-07-29T02:44:26;101557.97;;;14.35;68.07
71805;BME280;59654;52.216;5.616;2022-07-29T02:44:57;101550.84;;;14.34;68.03
71805;BME280;59654;52.216;5.616;2022-07-29T02:45:29;101546.41;;;14.33;69.00
71805;BME280;59654;52.216;5.616;2022-07-29T02:46:05;101557.22;;;14.32;68.74
71805;BME280;59654;52.216;5.616;2022-07-29T02:46:49;101554.53;;;14.32;69.41
71805;BME280;59654;52.216;5.616;2022-07-29T02:47:33;101553.66;;;14.31;69.12
71805;BME280;59654;52.216;5.616;2022-07-29T02:48:14;101555.41;;;14.32;68.73
71805;BME280;59654;52.216;5.616;2022-07-29T02:49:13;101556.28;;;14.33;68.69
71805;BME280;59654;52.216;5.616;2022-07-29T02:50:04;101546.41;;;14.33;68.42
71805;BME280;59654;52.216;5.616;2022-07-29T02:50:46;101550.09;;;14.31;68.03
71805;BME280;59654;52.216;5.616;2022-07-29T02:51:29;101560.69;;;14.34;68.48
71805;BME280;59654;52.216;5.616;2022-07-29T02:52:12;101554.41;;;14.35;67.87
71805;BME280;59654;52.216;5.616;2022-07-29T02:53:05;101555.22;;;14.37;67.19
71805;BME280;59654;52.216;5.616;2022-07-29T02:53:46;101562.28;;;14.38;68.31
71805;BME280;59654;52.216;5.616;2022-07-29T02:55:39;101556.78;;;14.41;67.40
71805;BME280;59654;52.216;5.616;2022-07-29T02:56:16;101557.66;;;14.41;67.38
71805;BME280;59654;52.216;5.616;2022-07-29T02:56:50;101555.88;;;14.42;68.48
71805;BME280;59654;52.216;5.616;2022-07-29T02:57:41;101570.16;;;14.42;68.44
71805;BME280;59654;52.216;5.616;2022-07-29T02:59:04;101563.03;;;14.41;68.24
71805;BME280;59654;52.216;5.616;2022-07-29T02:59:31;101562.97;;;14.43;67.86
71805;BME280;59654;52.216;5.616;2022-07-29T03:00:07;101567.41;;;14.44;68.40
71805;BME280;59654;52.216;5.616;2022-07-29T03:00:41;101566.47;;;14.45;68.39
71805;BME280;59654;52.216;5.616;2022-07-29T03:01:16;101567.34;;;14.45;67.91
71805;BME280;59654;52.216;5.616;2022-07-29T03:01:52;101561.97;;;14.45;68.58
71805;BME280;59654;52.216;5.616;2022-07-29T03:02:26;101560.16;;;14.46;68.08
71805;BME280;59654;52.216;5.616;2022-07-29T03:03:01;101564.66;;;14.45;67.27
71805;BME280;59654;52.216;5.616;2022-07-29T03:03:37;101556.63;;;14.45;68.57
71805;BME280;59654;52.216;5.616;2022-07-29T03:04:09;101561.03;;;14.46;68.08
71805;BME280;59654;52.216;5.616;2022-07-29T03:04:43;101560.09;;;14.47;68.53
71805;BME280;59654;52.216;5.616;2022-07-29T03:05:20;101562.78;;;14.47;70.18
71805;BME280;59654;52.216;5.616;2022-07-29T03:06:00;101558.34;;;14.46;69.44
71805;BME280;59654;52.216;5.616;2022-07-29T03:06:33;101561.84;;;14.48;69.49
71805;BME280;59654;52.216;5.616;2022-07-29T03:07:05;101563.72;;;14.46;69.05
71805;BME280;59654;52.216;5.616;2022-07-29T03:07:38;101560.09;;;14.47;69.12
71805;BME280;59654;52.216;5.616;2022-07-29T03:08:12;101559.28;;;14.45;68.50
71805;BME280;59654;52.216;5.616;2022-07-29T03:08:46;101556.63;;;14.45;67.97
71805;BME280;59654;52.216;5.616;2022-07-29T03:09:18;101558.41;;;14.45;67.91
71805;BME280;59654;52.216;5.616;2022-07-29T03:09:51;101554.88;;;14.44;69.11
71805;BME280;59654;52.216;5.616;2022-07-29T03:10:25;101562.84;;;14.46;69.91
71805;BME280;59654;52.216;5.616;2022-07-29T03:10:57;101553.00;;;14.46;70.84
71805;BME280;59654;52.216;5.616;2022-07-29T03:11:29;101550.38;;;14.45;71.49
71805;BME280;59654;52.216;5.616;2022-07-29T03:12:02;101550.31;;;14.46;71.12
71805;BME280;59654;52.216;5.616;2022-07-29T03:12:35;101561.97;;;14.45;70.42
71805;BME280;59654;52.216;5.616;2022-07-29T03:13:07;101553.06;;;14.45;69.94
71805;BME280;59654;52.216;5.616;2022-07-29T03:13:41;101555.75;;;14.45;70.53
71805;BME280;59654;52.216;5.616;2022-07-29T03:14:13;101557.53;;;14.44;69.54
71805;BME280;59654;52.216;5.616;2022-07-29T03:14:44;101556.75;;;14.42;71.10